Nearby METAR Reports

 

EGNV - Tees-Side, United Kingdom
Distance from station: W 8mi, 13km
Updated: 19/02/2018 08:50
Light drizzle, Fog, Mostly cloudy
Light drizzle, Fog, Mostly cloudy
 Wind from SW
Wind: SW 5 mph , 7 km/h
Temperature: 7°C
Wind Chill: 6°C
Dew Point: 6°C
Humidity: 93%
Barometer: 1015 hPa
Summary: Light drizzle, Fog
Clouds: Mostly cloudy
Visibility: 0 mile , 1 km
Cloud details: Partly cloudy 488 m
Mostly cloudy 640 m
2018/02/19 08:50 EGNV 190850Z 22004KT 0700 R05/P1400 R23/P1000 -DZ FG SCT016 BKN021 07/06 Q1015
EGXE - Leeming Raf, United Kingdom
Distance from station: SW 21mi, 34km
Updated: 19/02/2018 08:50
Light drizzle, Mostly cloudy
Light drizzle, Mostly cloudy
 Wind from SW
Wind: SW 1 mph , 2 km/h
Temperature: 6°C
Dew Point: 6°C
Humidity: 100%
Barometer: 1015 hPa
Summary: Light Drizzle
Clouds: Mostly cloudy
Visibility: 1 mile , 1 km
Cloud details: Few Clouds 152 m
Mostly cloudy 914 m
2018/02/19 08:50 EGXE 190850Z 23001KT 1000 -DZ FEW005 BKN030 06/06 Q1015 RERA REDZ AMB TEMPO 0700 RADZ SCT005 RED
 
EGXZ - Topcliffe Raf, United Kingdom
Distance from station: SSW 24mi, 38km
Updated: 19/02/2018 08:50
Light rain, Mostly cloudy
Light rain, Mostly cloudy
 Wind from NNW
Wind: NNW 1 mph , 2 km/h
Temperature: 6°C
Dew Point: 6°C
Humidity: 100%
Barometer: 1015 hPa
Summary: Light rain
Clouds: Mostly cloudy
Visibility: 1 mile , 1 km
Cloud details: Few Clouds 30 m
Mostly cloudy 305 m
Mostly cloudy 579 m
2018/02/19 08:50 EGXZ 190850Z AUTO 34001KT 1200 -RA FEW001/// BKN010/// BKN019/// 06/06 Q1015
EGXD - Dishforth Raf, United Kingdom
Distance from station: SSW 29mi, 46km
Updated: 06/06/2016 10:50
NOT Current
Clear
Clear
 Wind from SSE
Wind: SSE 5 mph , 7 km/h
Temperature: 18°C
Dew Point: 11°C
Humidity: 64%
Barometer: 1023 hPa
Clouds: Clear
Visibility: 6 miles , 10 km
2016/06/06 09:50 EGXD 060950Z AUTO 16004KT 9999 // NCD 18/11 Q1023
 
EGXU - Linton-On-Ouse R, United Kingdom
Distance from station: S 33mi, 53km
Updated: 19/02/2018 08:50
Light rain, Drizzle, Mostly cloudy
Light rain, Drizzle, Mostly cloudy
 Wind from NNW
Wind: NNW 2 mph , 4 km/h
Temperature: 7°C
Dew Point: 7°C
Humidity: 100%
Barometer: 1015 hPa
Summary: Light rain, Drizzle
Clouds: Mostly cloudy
Visibility: 2 miles , 3 km
Cloud details: Partly cloudy 396 m
Mostly cloudy 457 m
Mostly cloudy 701 m
2018/02/19 08:50 EGXU 190850Z 33002KT 2500 -RADZ SCT013 BKN015 BKN023 07/07 Q1015 YLO1 TEMPO SCT005 SCT013 YLO1
EGNT - Newcastle, United Kingdom
Distance from station: NNW 39mi, 63km
Updated: 19/02/2018 08:50
Light drizzle, Mostly cloudy
Light drizzle, Mostly cloudy
 Wind from WNW
Wind: WNW 3 mph , 6 km/h
Temperature: 8°C
Dew Point: 7°C
Humidity: 93%
Barometer: 1014 hPa
Summary: Light Drizzle
Clouds: Mostly cloudy
Visibility: 6 miles , 10 km
Cloud details: Few Clouds 183 m
Mostly cloudy 488 m
2018/02/19 08:50 EGNT 190850Z 30003KT 9999 -DZ FEW006 BKN016 08/07 Q1014
 
EGNM - Leeds And Bradfo, United Kingdom
Distance from station: SSW 49mi, 79km
Updated: 19/02/2018 08:50
Light rain, Drizzle, Mist, Mostly cloudy
Light rain, Drizzle, Mist, Mostly cloudy
 Wind from W
Wind: W 13 mph , 20 km/h
Temperature: 8°C
Wind Chill: 4°C
Dew Point: 8°C
Humidity: 100%
Barometer: 1015 hPa
Summary: Light rain, Drizzle, Mist
Clouds: Mostly cloudy
Visibility: 2 miles , 3 km
Cloud details: Mostly cloudy 61 m
2018/02/19 08:50 EGNM 190850Z 27011KT 250V350 3000 -RADZ BR BKN002 08/08 Q1015